sensor_id;sensor_type;location;lat;lon;timestamp;temperature;humidity
8820;DHT22;4446;50.876;4.736;2022-09-09T00:00:19;12.80;99.90
8820;DHT22;4446;50.876;4.736;2022-09-09T00:02:55;12.80;99.90
8820;DHT22;4446;50.876;4.736;2022-09-09T00:05:31;12.80;99.90
8820;DHT22;4446;50.876;4.736;2022-09-09T00:08:01;12.80;99.90
8820;DHT22;4446;50.876;4.736;2022-09-09T00:10:32;12.70;99.90
8820;DHT22;4446;50.876;4.736;2022-09-09T00:13:06;12.70;99.90
8820;DHT22;4446;50.876;4.736;2022-09-09T00:15:48;12.70;99.90
8820;DHT22;4446;50.876;4.736;2022-09-09T00:18:24;12.70;99.90
8820;DHT22;4446;50.876;4.736;2022-09-09T00:20:56;12.60;99.90
8820;DHT22;4446;50.876;4.736;2022-09-09T00:23:25;12.60;99.90
8820;DHT22;4446;50.876;4.736;2022-09-09T00:26:00;12.60;99.90
8820;DHT22;4446;50.876;4.736;2022-09-09T00:28:29;12.60;99.90
8820;DHT22;4446;50.876;4.736;2022-09-09T00:31:01;12.60;99.90
8820;DHT22;4446;50.876;4.736;2022-09-09T00:33:36;12.70;99.90
8820;DHT22;4446;50.876;4.736;2022-09-09T00:36:12;12.70;99.90
8820;DHT22;4446;50.876;4.736;2022-09-09T00:38:43;12.80;99.90
8820;DHT22;4446;50.876;4.736;2022-09-09T00:41:17;12.70;99.90
8820;DHT22;4446;50.876;4.736;2022-09-09T00:43:53;12.70;99.90
8820;DHT22;4446;50.876;4.736;2022-09-09T00:46:53;12.70;99.90
8820;DHT22;4446;50.876;4.736;2022-09-09T00:49:33;12.70;99.90
8820;DHT22;4446;50.876;4.736;2022-09-09T00:52:12;12.70;99.90
8820;DHT22;4446;50.876;4.736;2022-09-09T00:54:50;12.70;99.90
8820;DHT22;4446;50.876;4.736;2022-09-09T00:57:25;12.80;99.90
8820;DHT22;4446;50.876;4.736;2022-09-09T01:00:14;12.90;99.90
8820;DHT22;4446;50.876;4.736;2022-09-09T01:02:52;13.00;99.90
8820;DHT22;4446;50.876;4.736;2022-09-09T01:05:30;13.10;99.90
8820;DHT22;4446;50.876;4.736;2022-09-09T01:08:05;13.20;99.90
8820;DHT22;4446;50.876;4.736;2022-09-09T01:10:39;13.20;99.90
8820;DHT22;4446;50.876;4.736;2022-09-09T01:13:15;13.20;99.90
8820;DHT22;4446;50.876;4.736;2022-09-09T01:15:44;13.20;99.90
8820;DHT22;4446;50.876;4.736;2022-09-09T01:18:15;13.10;99.90
8820;DHT22;4446;50.876;4.736;2022-09-09T01:20:50;13.10;99.90
8820;DHT22;4446;50.876;4.736;2022-09-09T01:23:35;13.10;99.90
8820;DHT22;4446;50.876;4.736;2022-09-09T01:26:15;13.20;99.90
8820;DHT22;4446;50.876;4.736;2022-09-09T01:28:46;13.30;99.90
8820;DHT22;4446;50.876;4.736;2022-09-09T01:31:17;13.30;99.90
8820;DHT22;4446;50.876;4.736;2022-09-09T01:33:45;13.30;99.90
8820;DHT22;4446;50.876;4.736;2022-09-09T01:36:18;13.20;99.90
8820;DHT22;4446;50.876;4.736;2022-09-09T01:38:47;13.30;99.90
8820;DHT22;4446;50.876;4.736;2022-09-09T01:41:15;13.30;99.90
8820;DHT22;4446;50.876;4.736;2022-09-09T01:43:42;13.30;99.90
8820;DHT22;4446;50.876;4.736;2022-09-09T01:46:10;13.40;99.90
8820;DHT22;4446;50.876;4.736;2022-09-09T01:48:37;13.40;99.90
8820;DHT22;4446;50.876;4.736;2022-09-09T01:51:05;13.40;99.90
8820;DHT22;4446;50.876;4.736;2022-09-09T01:53:32;13.30;99.90
8820;DHT22;4446;50.876;4.736;2022-09-09T01:56:07;13.30;99.90
8820;DHT22;4446;50.876;4.736;2022-09-09T01:58:48;13.30;99.90
8820;DHT22;4446;50.876;4.736;2022-09-09T02:01:28;13.20;99.90
8820;DHT22;4446;50.876;4.736;2022-09-09T02:03:57;13.20;99.90
8820;DHT22;4446;50.876;4.736;2022-09-09T02:06:30;13.30;99.90
8820;DHT22;4446;50.876;4.736;2022-09-09T02:09:00;13.30;99.90
8820;DHT22;4446;50.876;4.736;2022-09-09T02:11:29;13.30;99.90
8820;DHT22;4446;50.876;4.736;2022-09-09T02:14:01;13.30;99.90
8820;DHT22;4446;50.876;4.736;2022-09-09T02:16:32;13.30;99.90
8820;DHT22;4446;50.876;4.736;2022-09-09T02:19:04;13.40;99.90
8820;DHT22;4446;50.876;4.736;2022-09-09T02:21:33;13.40;99.90
8820;DHT22;4446;50.876;4.736;2022-09-09T02:24:04;13.50;99.90
8820;DHT22;4446;50.876;4.736;2022-09-09T02:26:34;13.40;99.90
8820;DHT22;4446;50.876;4.736;2022-09-09T02:29:08;13.50;99.90
8820;DHT22;4446;50.876;4.736;2022-09-09T02:31:37;13.40;99.90
8820;DHT22;4446;50.876;4.736;2022-09-09T02:34:05;13.40;99.90
8820;DHT22;4446;50.876;4.736;2022-09-09T02:36:37;13.50;99.90
8820;DHT22;4446;50.876;4.736;2022-09-09T02:39:08;13.50;99.90
8820;DHT22;4446;50.876;4.736;2022-09-09T02:41:37;13.50;99.90
8820;DHT22;4446;50.876;4.736;2022-09-09T02:44:10;13.50;99.90
8820;DHT22;4446;50.876;4.736;2022-09-09T02:47:06;13.50;99.90
8820;DHT22;4446;50.876;4.736;2022-09-09T02:49:40;13.40;99.90
8820;DHT22;4446;50.876;4.736;2022-09-09T02:52:14;13.40;99.90
8820;DHT22;4446;50.876;4.736;2022-09-09T02:54:42;13.40;99.90
8820;DHT22;4446;50.876;4.736;2022-09-09T02:57:11;13.40;99.90
8820;DHT22;4446;50.876;4.736;2022-09-09T02:59:40;13.40;99.90
8820;DHT22;4446;50.876;4.736;2022-09-09T03:02:09;13.50;99.90
8820;DHT22;4446;50.876;4.736;2022-09-09T03:04:37;13.60;99.90
8820;DHT22;4446;50.876;4.736;2022-09-09T03:07:05;13.60;99.90
8820;DHT22;4446;50.876;4.736;2022-09-09T03:09:32;13.60;99.90
8820;DHT22;4446;50.876;4.736;2022-09-09T03:12:00;13.60;99.90
8820;DHT22;4446;50.876;4.736;2022-09-09T03:14:27;13.50;99.90
8820;DHT22;4446;50.876;4.736;2022-09-09T03:16:55;13.50;99.90
8820;DHT22;4446;50.876;4.736;2022-09-09T03:19:23;13.60;99.90
8820;DHT22;4446;50.876;4.736;2022-09-09T03:21:50;13.60;99.90
8820;DHT22;4446;50.876;4.736;2022-09-09T03:24:17;13.70;99.90
8820;DHT22;4446;50.876;4.736;2022-09-09T03:26:45;13.60;99.90
8820;DHT22;4446;50.876;4.736;2022-09-09T03:29:12;13.50;99.90
8820;DHT22;4446;50.876;4.736;2022-09-09T03:31:40;13.60;99.90
8820;DHT22;4446;50.876;4.736;2022-09-09T03:34:10;13.50;99.90
8820;DHT22;4446;50.876;4.736;2022-09-09T03:36:37;13.50;99.90
8820;DHT22;4446;50.876;4.736;2022-09-09T03:39:04;13.50;99.90
8820;DHT22;4446;50.876;4.736;2022-09-09T03:41:31;13.50;99.90
8820;DHT22;4446;50.876;4.736;2022-09-09T03:43:58;13.50;99.90
8820;DHT22;4446;50.876;4.736;2022-09-09T03:46:26;13.60;99.90
8820;DHT22;4446;50.876;4.736;2022-09-09T03:48:53;13.60;99.90
8820;DHT22;4446;50.876;4.736;2022-09-09T03:51:21;13.70;99.90
8820;DHT22;4446;50.876;4.736;2022-09-09T03:53:48;13.80;99.90
8820;DHT22;4446;50.876;4.736;2022-09-09T03:56:16;13.70;99.90
8820;DHT22;4446;50.876;4.736;2022-09-09T03:58:43;13.60;99.90
8820;DHT22;4446;50.876;4.736;2022-09-09T04:01:12;13.60;99.90
8820;DHT22;4446;50.876;4.736;2022-09-09T04:03:40;13.60;99.90
8820;DHT22;4446;50.876;4.736;2022-09-09T04:06:09;13.60;99.90
8820;DHT22;4446;50.876;4.736;2022-09-09T04:08:39;13.60;99.90
8820;DHT22;4446;50.876;4.736;2022-09-09T04:11:07;13.60;99.90
8820;DHT22;4446;50.876;4.736;2022-09-09T04:13:36;13.60;99.90
8820;DHT22;4446;50.876;4.736;2022-09-09T04:16:05;13.60;99.90
8820;DHT22;4446;50.876;4.736;2022-09-09T04:18:32;13.50;99.90
8820;DHT22;4446;50.876;4.736;2022-09-09T04:20:59;13.50;99.90
8820;DHT22;4446;50.876;4.736;2022-09-09T04:23:27;13.60;99.90
8820;DHT22;4446;50.876;4.736;2022-09-09T04:25:58;13.60;99.90
8820;DHT22;4446;50.876;4.736;2022-09-09T04:28:27;13.50;99.90
8820;DHT22;4446;50.876;4.736;2022-09-09T04:30:55;13.50;99.90
8820;DHT22;4446;50.876;4.736;2022-09-09T04:33:23;13.60;99.90
8820;DHT22;4446;50.876;4.736;2022-09-09T04:35:52;13.60;99.90
8820;DHT22;4446;50.876;4.736;2022-09-09T04:38:19;13.70;99.90
8820;DHT22;4446;50.876;4.736;2022-09-09T04:40:49;13.70;99.90
8820;DHT22;4446;50.876;4.736;2022-09-09T04:43:18;13.80;99.90
8820;DHT22;4446;50.876;4.736;2022-09-09T04:45:47;13.90;99.90
8820;DHT22;4446;50.876;4.736;2022-09-09T04:48:15;13.80;99.90
8820;DHT22;4446;50.876;4.736;2022-09-09T04:50:42;13.80;99.90
8820;DHT22;4446;50.876;4.736;2022-09-09T04:53:09;13.80;99.90
8820;DHT22;4446;50.876;4.736;2022-09-09T04:55:36;13.70;99.90
8820;DHT22;4446;50.876;4.736;2022-09-09T04:58:04;13.60;99.90
8820;DHT22;4446;50.876;4.736;2022-09-09T05:00:33;13.60;99.90
8820;DHT22;4446;50.876;4.736;2022-09-09T05:03:02;13.60;99.90
8820;DHT22;4446;50.876;4.736;2022-09-09T05:05:31;13.60;99.90
8820;DHT22;4446;50.876;4.736;2022-09-09T05:08:01;13.60;99.90
8820;DHT22;4446;50.876;4.736;2022-09-09T05:10:29;13.60;99.90
8820;DHT22;4446;50.876;4.736;2022-09-09T05:12:56;13.70;99.90
8820;DHT22;4446;50.876;4.736;2022-09-09T05:15:23;13.70;99.90
8820;DHT22;4446;50.876;4.736;2022-09-09T05:17:51;13.70;99.90
8820;DHT22;4446;50.876;4.736;2022-09-09T05:20:19;13.70;99.90
8820;DHT22;4446;50.876;4.736;2022-09-09T05:22:46;13.70;99.90
8820;DHT22;4446;50.876;4.736;2022-09-09T05:25:14;13.70;99.90
8820;DHT22;4446;50.876;4.736;2022-09-09T05:27:41;13.70;99.90
8820;DHT22;4446;50.876;4.736;2022-09-09T05:30:09;13.80;99.90
8820;DHT22;4446;50.876;4.736;2022-09-09T05:32:36;13.90;99.90
8820;DHT22;4446;50.876;4.736;2022-09-09T05:35:05;13.90;99.90
8820;DHT22;4446;50.876;4.736;2022-09-09T05:37:32;14.00;99.90
8820;DHT22;4446;50.876;4.736;2022-09-09T05:40:00;14.00;99.90
8820;DHT22;4446;50.876;4.736;2022-09-09T05:42:30;14.10;99.90
8820;DHT22;4446;50.876;4.736;2022-09-09T05:44:58;14.10;99.90
8820;DHT22;4446;50.876;4.736;2022-09-09T05:47:25;14.20;99.90
8820;DHT22;4446;50.876;4.736;2022-09-09T05:49:53;14.30;99.90
8820;DHT22;4446;50.876;4.736;2022-09-09T05:52:22;14.30;99.90
8820;DHT22;4446;50.876;4.736;2022-09-09T05:54:51;14.40;99.90
8820;DHT22;4446;50.876;4.736;2022-09-09T05:57:19;14.50;99.90
8820;DHT22;4446;50.876;4.736;2022-09-09T05:59:46;14.60;99.90
8820;DHT22;4446;50.876;4.736;2022-09-09T06:02:13;14.70;99.90
8820;DHT22;4446;50.876;4.736;2022-09-09T06:04:40;14.70;99.90
8820;DHT22;4446;50.876;4.736;2022-09-09T06:07:07;14.80;99.90
8820;DHT22;4446;50.876;4.736;2022-09-09T06:09:36;14.80;99.90
8820;DHT22;4446;50.876;4.736;2022-09-09T06:12:03;14.80;99.90
8820;DHT22;4446;50.876;4.736;2022-09-09T06:14:30;14.90;99.90
8820;DHT22;4446;50.876;4.736;2022-09-09T06:16:57;14.90;99.90
8820;DHT22;4446;50.876;4.736;2022-09-09T06:19:24;14.90;99.90
8820;DHT22;4446;50.876;4.736;2022-09-09T06:21:52;14.90;99.90
8820;DHT22;4446;50.876;4.736;2022-09-09T06:24:20;14.90;99.90
8820;DHT22;4446;50.876;4.736;2022-09-09T06:26:49;14.90;99.90
8820;DHT22;4446;50.876;4.736;2022-09-09T06:29:16;14.90;99.90
8820;DHT22;4446;50.876;4.736;2022-09-09T06:31:44;15.00;99.90
8820;DHT22;4446;50.876;4.736;2022-09-09T06:34:13;15.10;99.90
8820;DHT22;4446;50.876;4.736;2022-09-09T06:36:40;15.20;99.90
8820;DHT22;4446;50.876;4.736;2022-09-09T06:39:07;15.20;99.90
8820;DHT22;4446;50.876;4.736;2022-09-09T06:41:36;15.40;99.90
8820;DHT22;4446;50.876;4.736;2022-09-09T06:44:05;15.40;99.90
8820;DHT22;4446;50.876;4.736;2022-09-09T06:46:32;15.50;99.90
8820;DHT22;4446;50.876;4.736;2022-09-09T06:48:59;15.50;99.90
8820;DHT22;4446;50.876;4.736;2022-09-09T06:51:27;15.60;99.90
8820;DHT22;4446;50.876;4.736;2022-09-09T06:53:56;15.70;99.90
8820;DHT22;4446;50.876;4.736;2022-09-09T06:56:25;15.80;99.90
8820;DHT22;4446;50.876;4.736;2022-09-09T06:58:54;15.90;99.90
8820;DHT22;4446;50.876;4.736;2022-09-09T07:01:24;15.90;99.90
8820;DHT22;4446;50.876;4.736;2022-09-09T07:03:52;15.80;99.90
8820;DHT22;4446;50.876;4.736;2022-09-09T07:06:21;15.80;99.90
8820;DHT22;4446;50.876;4.736;2022-09-09T07:08:50;15.80;99.90
8820;DHT22;4446;50.876;4.736;2022-09-09T07:11:18;15.80;99.90
8820;DHT22;4446;50.876;4.736;2022-09-09T07:13:46;15.70;99.90
8820;DHT22;4446;50.876;4.736;2022-09-09T07:16:15;15.70;99.90
8820;DHT22;4446;50.876;4.736;2022-09-09T07:18:44;15.70;99.90
8820;DHT22;4446;50.876;4.736;2022-09-09T07:21:12;15.70;99.90
8820;DHT22;4446;50.876;4.736;2022-09-09T07:23:40;15.70;99.90
8820;DHT22;4446;50.876;4.736;2022-09-09T07:26:09;15.70;99.90
8820;DHT22;4446;50.876;4.736;2022-09-09T07:28:37;15.70;99.90
8820;DHT22;4446;50.876;4.736;2022-09-09T07:31:05;15.70;99.90
8820;DHT22;4446;50.876;4.736;2022-09-09T07:33:34;15.80;99.90
8820;DHT22;4446;50.876;4.736;2022-09-09T07:36:08;16.00;99.90
8820;DHT22;4446;50.876;4.736;2022-09-09T07:38:40;16.10;99.90
8820;DHT22;4446;50.876;4.736;2022-09-09T07:41:11;16.10;99.90
8820;DHT22;4446;50.876;4.736;2022-09-09T07:43:38;16.00;99.90
8820;DHT22;4446;50.876;4.736;2022-09-09T07:46:07;16.00;99.90
8820;DHT22;4446;50.876;4.736;2022-09-09T07:48:34;15.90;99.90
8820;DHT22;4446;50.876;4.736;2022-09-09T07:51:11;16.00;99.90
8820;DHT22;4446;50.876;4.736;2022-09-09T07:53:41;16.00;99.90
8820;DHT22;4446;50.876;4.736;2022-09-09T07:56:10;16.00;99.90
8820;DHT22;4446;50.876;4.736;2022-09-09T07:58:38;16.00;99.90
8820;DHT22;4446;50.876;4.736;2022-09-09T08:01:08;16.10;99.90
8820;DHT22;4446;50.876;4.736;2022-09-09T08:03:36;16.20;99.90
8820;DHT22;4446;50.876;4.736;2022-09-09T08:06:04;16.50;99.90
8820;DHT22;4446;50.876;4.736;2022-09-09T08:08:34;16.60;99.90
8820;DHT22;4446;50.876;4.736;2022-09-09T08:11:03;16.60;99.90
8820;DHT22;4446;50.876;4.736;2022-09-09T08:13:30;16.60;99.90
8820;DHT22;4446;50.876;4.736;2022-09-09T08:16:05;16.70;99.90
8820;DHT22;4446;50.876;4.736;2022-09-09T08:18:32;16.90;99.90
8820;DHT22;4446;50.876;4.736;2022-09-09T08:21:06;17.00;99.90
8820;DHT22;4446;50.876;4.736;2022-09-09T08:23:36;17.00;99.90
8820;DHT22;4446;50.876;4.736;2022-09-09T08:26:09;17.10;99.90
8820;DHT22;4446;50.876;4.736;2022-09-09T08:28:37;17.20;99.90
8820;DHT22;4446;50.876;4.736;2022-09-09T08:31:07;17.30;99.90
8820;DHT22;4446;50.876;4.736;2022-09-09T08:33:34;17.40;99.90
8820;DHT22;4446;50.876;4.736;2022-09-09T08:36:03;17.40;99.90
8820;DHT22;4446;50.876;4.736;2022-09-09T08:38:30;17.50;99.90
8820;DHT22;4446;50.876;4.736;2022-09-09T08:41:07;17.60;99.90
8820;DHT22;4446;50.876;4.736;2022-09-09T08:43:36;17.70;99.90
8820;DHT22;4446;50.876;4.736;2022-09-09T08:46:09;17.80;99.90
8820;DHT22;4446;50.876;4.736;2022-09-09T08:48:46;17.60;99.90
8820;DHT22;4446;50.876;4.736;2022-09-09T08:51:18;17.50;99.90
8820;DHT22;4446;50.876;4.736;2022-09-09T08:53:49;17.50;99.90
8820;DHT22;4446;50.876;4.736;2022-09-09T08:56:23;17.40;99.90
8820;DHT22;4446;50.876;4.736;2022-09-09T08:58:52;17.30;99.90
8820;DHT22;4446;50.876;4.736;2022-09-09T09:01:29;17.20;99.90
8820;DHT22;4446;50.876;4.736;2022-09-09T09:04:06;17.00;99.90
8820;DHT22;4446;50.876;4.736;2022-09-09T09:06:49;16.80;99.90
8820;DHT22;4446;50.876;4.736;2022-09-09T09:09:22;16.60;99.90
8820;DHT22;4446;50.876;4.736;2022-09-09T09:11:55;16.40;99.90
8820;DHT22;4446;50.876;4.736;2022-09-09T09:14:28;16.30;99.90
8820;DHT22;4446;50.876;4.736;2022-09-09T09:16:58;16.30;99.90
8820;DHT22;4446;50.876;4.736;2022-09-09T09:19:26;16.20;99.90
8820;DHT22;4446;50.876;4.736;2022-09-09T09:21:58;16.20;99.90
8820;DHT22;4446;50.876;4.736;2022-09-09T09:24:36;16.20;99.90
8820;DHT22;4446;50.876;4.736;2022-09-09T09:27:12;16.30;99.90
8820;DHT22;4446;50.876;4.736;2022-09-09T09:29:40;16.30;99.90
8820;DHT22;4446;50.876;4.736;2022-09-09T09:32:12;16.30;99.90
8820;DHT22;4446;50.876;4.736;2022-09-09T09:34:40;16.30;99.90
8820;DHT22;4446;50.876;4.736;2022-09-09T09:37:14;16.30;99.90
8820;DHT22;4446;50.876;4.736;2022-09-09T09:39:44;16.30;99.90
8820;DHT22;4446;50.876;4.736;2022-09-09T09:42:14;16.30;99.90
8820;DHT22;4446;50.876;4.736;2022-09-09T09:44:43;16.20;99.90
8820;DHT22;4446;50.876;4.736;2022-09-09T09:47:12;16.20;99.90
8820;DHT22;4446;50.876;4.736;2022-09-09T09:49:51;16.30;99.90
8820;DHT22;4446;50.876;4.736;2022-09-09T09:52:22;16.30;99.90
8820;DHT22;4446;50.876;4.736;2022-09-09T09:54:50;16.30;99.90
8820;DHT22;4446;50.876;4.736;2022-09-09T09:57:24;16.40;99.90
8820;DHT22;4446;50.876;4.736;2022-09-09T10:00:02;16.30;99.90
8820;DHT22;4446;50.876;4.736;2022-09-09T10:02:36;16.40;99.90
8820;DHT22;4446;50.876;4.736;2022-09-09T10:05:05;16.30;99.90
8820;DHT22;4446;50.876;4.736;2022-09-09T10:07:33;16.20;99.90
8820;DHT22;4446;50.876;4.736;2022-09-09T10:10:03;16.30;99.90
8820;DHT22;4446;50.876;4.736;2022-09-09T10:12:40;16.30;99.90
8820;DHT22;4446;50.876;4.736;2022-09-09T10:15:27;16.50;99.90
8820;DHT22;4446;50.876;4.736;2022-09-09T10:18:02;16.50;99.90
8820;DHT22;4446;50.876;4.736;2022-09-09T10:20:37;16.40;99.90
8820;DHT22;4446;50.876;4.736;2022-09-09T10:23:16;16.40;99.90
8820;DHT22;4446;50.876;4.736;2022-09-09T10:26:03;16.30;99.90
8820;DHT22;4446;50.876;4.736;2022-09-09T10:31:49;16.30;99.90
8820;DHT22;4446;50.876;4.736;2022-09-09T10:34:32;16.40;99.90
8820;DHT22;4446;50.876;4.736;2022-09-09T10:37:11;16.50;99.90
8820;DHT22;4446;50.876;4.736;2022-09-09T10:39:44;16.50;99.90
8820;DHT22;4446;50.876;4.736;2022-09-09T10:42:13;16.40;99.90
8820;DHT22;4446;50.876;4.736;2022-09-09T10:45:00;16.40;99.90
8820;DHT22;4446;50.876;4.736;2022-09-09T10:47:44;16.40;99.90
8820;DHT22;4446;50.876;4.736;2022-09-09T10:50:29;16.30;99.90
8820;DHT22;4446;50.876;4.736;2022-09-09T10:53:02;16.40;99.90
8820;DHT22;4446;50.876;4.736;2022-09-09T10:55:38;16.40;99.90
8820;DHT22;4446;50.876;4.736;2022-09-09T10:58:09;16.40;99.90
8820;DHT22;4446;50.876;4.736;2022-09-09T11:00:40;16.40;99.90
8820;DHT22;4446;50.876;4.736;2022-09-09T11:03:15;16.30;99.90
8820;DHT22;4446;50.876;4.736;2022-09-09T11:05:47;16.40;99.90
8820;DHT22;4446;50.876;4.736;2022-09-09T11:08:19;16.50;99.90
8820;DHT22;4446;50.876;4.736;2022-09-09T11:10:51;16.70;99.90
8820;DHT22;4446;50.876;4.736;2022-09-09T11:13:24;16.80;99.90
8820;DHT22;4446;50.876;4.736;2022-09-09T11:15:59;17.00;99.90
8820;DHT22;4446;50.876;4.736;2022-09-09T11:18:31;17.10;99.90
8820;DHT22;4446;50.876;4.736;2022-09-09T11:21:08;17.20;99.90
8820;DHT22;4446;50.876;4.736;2022-09-09T11:23:40;17.30;99.90
8820;DHT22;4446;50.876;4.736;2022-09-09T11:26:11;17.30;99.90
8820;DHT22;4446;50.876;4.736;2022-09-09T11:28:51;17.40;99.90
8820;DHT22;4446;50.876;4.736;2022-09-09T11:31:38;17.50;99.90
8820;DHT22;4446;50.876;4.736;2022-09-09T11:34:18;17.70;99.90
8820;DHT22;4446;50.876;4.736;2022-09-09T11:37:00;17.90;99.90
8820;DHT22;4446;50.876;4.736;2022-09-09T11:39:52;18.00;99.90
8820;DHT22;4446;50.876;4.736;2022-09-09T11:42:24;18.20;99.90
8820;DHT22;4446;50.876;4.736;2022-09-09T11:44:51;18.30;99.90
8820;DHT22;4446;50.876;4.736;2022-09-09T11:47:23;18.50;99.90
8820;DHT22;4446;50.876;4.736;2022-09-09T11:50:08;18.40;99.90
8820;DHT22;4446;50.876;4.736;2022-09-09T11:52:37;18.40;99.90
8820;DHT22;4446;50.876;4.736;2022-09-09T11:55:10;18.30;99.90
8820;DHT22;4446;50.876;4.736;2022-09-09T11:57:38;18.40;99.90
8820;DHT22;4446;50.876;4.736;2022-09-09T12:00:06;18.50;99.90
8820;DHT22;4446;50.876;4.736;2022-09-09T12:02:35;18.70;99.90
8820;DHT22;4446;50.876;4.736;2022-09-09T12:05:06;18.70;99.90
8820;DHT22;4446;50.876;4.736;2022-09-09T12:07:36;18.70;99.90
8820;DHT22;4446;50.876;4.736;2022-09-09T12:10:20;18.70;99.90
8820;DHT22;4446;50.876;4.736;2022-09-09T12:12:48;19.00;99.90
8820;DHT22;4446;50.876;4.736;2022-09-09T12:15:25;19.10;99.90
8820;DHT22;4446;50.876;4.736;2022-09-09T12:17:55;19.30;99.90
8820;DHT22;4446;50.876;4.736;2022-09-09T12:20:31;19.30;99.90
8820;DHT22;4446;50.876;4.736;2022-09-09T12:23:11;19.30;99.90
8820;DHT22;4446;50.876;4.736;2022-09-09T12:25:53;19.20;99.90
8820;DHT22;4446;50.876;4.736;2022-09-09T12:28:25;19.30;99.90
8820;DHT22;4446;50.876;4.736;2022-09-09T12:30:58;19.10;99.90
8820;DHT22;4446;50.876;4.736;2022-09-09T12:33:34;19.00;99.90
8820;DHT22;4446;50.876;4.736;2022-09-09T12:36:04;19.00;99.90
8820;DHT22;4446;50.876;4.736;2022-09-09T12:38:34;19.20;99.90
8820;DHT22;4446;50.876;4.736;2022-09-09T12:41:03;19.40;99.90
8820;DHT22;4446;50.876;4.736;2022-09-09T12:43:30;19.50;99.90
8820;DHT22;4446;50.876;4.736;2022-09-09T12:46:00;19.50;99.90
8820;DHT22;4446;50.876;4.736;2022-09-09T12:48:32;19.70;99.90
8820;DHT22;4446;50.876;4.736;2022-09-09T12:51:01;19.80;99.90
8820;DHT22;4446;50.876;4.736;2022-09-09T12:53:32;19.90;99.90
8820;DHT22;4446;50.876;4.736;2022-09-09T12:56:02;20.00;99.90
8820;DHT22;4446;50.876;4.736;2022-09-09T12:58:32;20.00;99.90
8820;DHT22;4446;50.876;4.736;2022-09-09T13:01:01;20.00;99.90
8820;DHT22;4446;50.876;4.736;2022-09-09T13:03:30;19.90;99.90
8820;DHT22;4446;50.876;4.736;2022-09-09T13:05:58;19.90;99.90
8820;DHT22;4446;50.876;4.736;2022-09-09T13:08:28;20.00;99.90
8820;DHT22;4446;50.876;4.736;2022-09-09T13:10:58;20.30;99.90
8820;DHT22;4446;50.876;4.736;2022-09-09T13:13:31;20.40;99.90
8820;DHT22;4446;50.876;4.736;2022-09-09T13:16:01;20.50;99.90
8820;DHT22;4446;50.876;4.736;2022-09-09T13:18:32;20.60;99.90
8820;DHT22;4446;50.876;4.736;2022-09-09T13:21:00;20.70;99.90
8820;DHT22;4446;50.876;4.736;2022-09-09T13:23:31;20.70;99.90
8820;DHT22;4446;50.876;4.736;2022-09-09T13:26:00;20.80;99.90
8820;DHT22;4446;50.876;4.736;2022-09-09T13:28:29;20.90;99.90
8820;DHT22;4446;50.876;4.736;2022-09-09T13:30:57;20.90;99.90
8820;DHT22;4446;50.876;4.736;2022-09-09T13:33:31;21.00;99.90
8820;DHT22;4446;50.876;4.736;2022-09-09T13:36:01;21.10;99.90
8820;DHT22;4446;50.876;4.736;2022-09-09T13:38:32;21.20;99.90
8820;DHT22;4446;50.876;4.736;2022-09-09T13:41:01;21.30;99.90
8820;DHT22;4446;50.876;4.736;2022-09-09T13:43:31;21.30;99.90
8820;DHT22;4446;50.876;4.736;2022-09-09T13:46:02;21.20;99.90
8820;DHT22;4446;50.876;4.736;2022-09-09T13:48:29;21.40;99.90
8820;DHT22;4446;50.876;4.736;2022-09-09T13:50:59;21.40;99.90
8820;DHT22;4446;50.876;4.736;2022-09-09T13:53:27;21.50;99.90
8820;DHT22;4446;50.876;4.736;2022-09-09T13:55:58;21.60;99.90
8820;DHT22;4446;50.876;4.736;2022-09-09T13:58:25;21.50;99.90
8820;DHT22;4446;50.876;4.736;2022-09-09T14:00:52;21.40;99.90
8820;DHT22;4446;50.876;4.736;2022-09-09T14:03:20;21.20;99.90
8820;DHT22;4446;50.876;4.736;2022-09-09T14:05:47;21.30;99.90
8820;DHT22;4446;50.876;4.736;2022-09-09T14:08:23;21.10;99.90
8820;DHT22;4446;50.876;4.736;2022-09-09T14:10:51;21.20;99.90
8820;DHT22;4446;50.876;4.736;2022-09-09T14:13:20;21.50;99.90
8820;DHT22;4446;50.876;4.736;2022-09-09T14:15:48;21.50;99.90
8820;DHT22;4446;50.876;4.736;2022-09-09T14:18:16;21.70;99.90
8820;DHT22;4446;50.876;4.736;2022-09-09T14:20:45;22.30;99.90
8820;DHT22;4446;50.876;4.736;2022-09-09T14:23:12;22.50;99.90
8820;DHT22;4446;50.876;4.736;2022-09-09T14:25:41;22.40;99.90
8820;DHT22;4446;50.876;4.736;2022-09-09T14:28:10;22.40;99.90
8820;DHT22;4446;50.876;4.736;2022-09-09T14:30:39;22.10;99.90
8820;DHT22;4446;50.876;4.736;2022-09-09T14:33:07;21.90;99.90
8820;DHT22;4446;50.876;4.736;2022-09-09T14:35:35;21.60;99.90
8820;DHT22;4446;50.876;4.736;2022-09-09T14:38:03;21.40;99.90
8820;DHT22;4446;50.876;4.736;2022-09-09T14:40:30;21.50;99.90
8820;DHT22;4446;50.876;4.736;2022-09-09T14:42:57;21.90;99.90
8820;DHT22;4446;50.876;4.736;2022-09-09T14:45:26;21.70;99.90
8820;DHT22;4446;50.876;4.736;2022-09-09T14:47:54;21.80;99.90
8820;DHT22;4446;50.876;4.736;2022-09-09T14:50:22;21.60;99.90
8820;DHT22;4446;50.876;4.736;2022-09-09T14:52:50;21.40;99.90
8820;DHT22;4446;50.876;4.736;2022-09-09T14:55:17;21.30;99.90
8820;DHT22;4446;50.876;4.736;2022-09-09T14:57:44;21.30;99.90
8820;DHT22;4446;50.876;4.736;2022-09-09T15:00:13;21.10;99.90
8820;DHT22;4446;50.876;4.736;2022-09-09T15:02:40;21.30;99.90
8820;DHT22;4446;50.876;4.736;2022-09-09T15:05:09;21.40;99.90
8820;DHT22;4446;50.876;4.736;2022-09-09T15:07:36;21.70;99.90
8820;DHT22;4446;50.876;4.736;2022-09-09T15:10:04;22.00;99.90
8820;DHT22;4446;50.876;4.736;2022-09-09T15:12:32;22.40;99.90
8820;DHT22;4446;50.876;4.736;2022-09-09T15:15:01;22.40;99.90
8820;DHT22;4446;50.876;4.736;2022-09-09T15:17:29;22.70;99.90
8820;DHT22;4446;50.876;4.736;2022-09-09T15:19:56;22.90;99.90
8820;DHT22;4446;50.876;4.736;2022-09-09T15:22:24;23.20;99.90
8820;DHT22;4446;50.876;4.736;2022-09-09T15:24:51;23.40;99.90
8820;DHT22;4446;50.876;4.736;2022-09-09T15:27:18;23.30;99.90
8820;DHT22;4446;50.876;4.736;2022-09-09T15:29:45;23.10;99.90
8820;DHT22;4446;50.876;4.736;2022-09-09T15:32:12;23.00;99.90
8820;DHT22;4446;50.876;4.736;2022-09-09T15:34:40;22.80;99.90
8820;DHT22;4446;50.876;4.736;2022-09-09T15:37:10;22.60;99.90
8820;DHT22;4446;50.876;4.736;2022-09-09T15:39:40;22.30;99.90
8820;DHT22;4446;50.876;4.736;2022-09-09T15:42:07;22.00;99.90
8820;DHT22;4446;50.876;4.736;2022-09-09T15:44:40;22.20;99.90
8820;DHT22;4446;50.876;4.736;2022-09-09T15:47:10;22.50;99.90
8820;DHT22;4446;50.876;4.736;2022-09-09T15:49:40;22.90;99.90
8820;DHT22;4446;50.876;4.736;2022-09-09T15:52:09;23.10;99.90
8820;DHT22;4446;50.876;4.736;2022-09-09T15:54:39;23.40;99.90
8820;DHT22;4446;50.876;4.736;2022-09-09T15:57:12;23.10;99.90
8820;DHT22;4446;50.876;4.736;2022-09-09T15:59:39;22.60;99.90
8820;DHT22;4446;50.876;4.736;2022-09-09T16:02:08;22.10;99.90
8820;DHT22;4446;50.876;4.736;2022-09-09T16:04:35;21.70;99.90
8820;DHT22;4446;50.876;4.736;2022-09-09T16:07:04;21.60;99.90
8820;DHT22;4446;50.876;4.736;2022-09-09T16:09:32;21.90;99.90
8820;DHT22;4446;50.876;4.736;2022-09-09T16:12:04;22.10;99.90
8820;DHT22;4446;50.876;4.736;2022-09-09T16:14:35;22.10;99.90
8820;DHT22;4446;50.876;4.736;2022-09-09T16:17:03;22.00;99.90
8820;DHT22;4446;50.876;4.736;2022-09-09T16:19:31;21.70;99.90
8820;DHT22;4446;50.876;4.736;2022-09-09T16:21:58;21.90;99.90
8820;DHT22;4446;50.876;4.736;2022-09-09T16:24:25;21.70;99.90
8820;DHT22;4446;50.876;4.736;2022-09-09T16:26:54;21.60;99.90